• Join FlightAware (Why Join?)
  • Login
  • US Flag 
03:42AM EDT


 

Airport Tracker/Info


-or-


 

Live Flight TrackerFlight Track Log ✈ AVN51 ✈ 16-Aug-2014 ✈ NZAA / AKL - NVVV / VLI

Flight Track Log - Related Links

Times and Time Zones

All times are in EDT time to prevent confusion due to time zone crossing. See the AVN51 flight status page for this flight to view local times or setup timezone preferences in your user account.

Time Position Orientation Groundspeed Altitude Reporting Facility
EDT Latitude Longitude Course Direction KTS MPH feet Rate Location/Type
08:14PM -37.0167 174.7667 342° North 112 129  Level New Zealand
08:15PM -36.8969 174.7460 342° North  Level Estimated
08:15PM -37.0310 174.7166 251° West 163 188 1,800  Level FlightAware ADS-B (NZJL)
08:15PM -37.0431 174.6711 252° West 218 251 3,300 2,340 Climbing FlightAware ADS-B (NZAR / AMZ)
08:16PM -37.0426 174.6449 287° West 229 264 4,200 1,980 Climbing FlightAware ADS-B (NZJL)
08:16PM -37.0408 174.6406 304° West 245 282 4,300 1,980 Climbing FlightAware ADS-B (NZAR / AMZ)
08:16PM -37.0029 174.6185 353° North 283 326 5,500 2,400 Climbing FlightAware ADS-B (NZAR / AMZ)
08:17PM -36.9847 174.6158 353° North 291 335 6,400 2,520 Climbing FlightAware ADS-B (NZNE)
08:17PM -36.9273 174.6076 357° North 296 341 7,900 2,580 Climbing FlightAware ADS-B (NZPI)
08:17PM -36.9203 174.6071 357° North 297 342 8,100 3,000 Climbing FlightAware ADS-B (NZAR / AMZ)
08:18PM -36.9067 174.6060 357° North 295 339 8,600 2,820 Climbing FlightAware ADS-B (NZPI)
08:18PM -36.8941 174.6051 357° North 297 342 9,100 2,760 Climbing FlightAware ADS-B (NZNE)
08:18PM -36.8860 174.6044 357° North 296 341 9,300 2,520 Climbing FlightAware ADS-B (NZPI)
08:18PM -36.8653 174.6027 356° North 299 344 9,900 1,680 Climbing FlightAware ADS-B (NZPI)
08:19PM -36.8226 174.5983 355° North 326 375 10,600 1,260 Climbing FlightAware ADS-B (NZPI)
08:19PM -36.8059 174.5964 355° North 339 390 10,800 960 Climbing FlightAware ADS-B (NZNE)
08:19PM -36.7743 174.5930 355° North 358 412 11,100 1,020 Climbing FlightAware ADS-B (NZPI)
08:19PM -36.7383 174.5889 355° North 378 435 11,500 1,440 Climbing FlightAware ADS-B (NZNE)
08:20PM -36.7232 174.5872 355° North 380 437 11,800 2,520 Climbing FlightAware ADS-B (NZPI)
08:20PM -36.6713 174.5822 357° North 380 437 13,100 2,580 Climbing FlightAware ADS-B (NZPI)
08:20PM -36.6766 174.5826 356° North 382 440 13,200 2,460 Climbing FlightAware ADS-B (NZNE)
08:21PM -36.6163 174.5780 357° North 388 447 14,400 2,400 Climbing FlightAware ADS-B (NZPI)
08:21PM -36.5979 174.5765 356° North 394 453 14,800 2,040 Climbing FlightAware ADS-B (NZNE)
08:21PM -36.5634 174.5695 347° North 398 458 15,400 2,160 Climbing FlightAware ADS-B (NZPI)
08:21PM -36.5404 174.5610 341° North 400 460 16,000 2,460 Climbing FlightAware ADS-B (NZAR / AMZ)
08:22PM -36.5099 174.5468 340° North 401 461 16,700 2,340 Climbing FlightAware ADS-B (NZPI)
08:22PM -36.4659 174.5265 339° North 399 459 17,600 2,160 Climbing FlightAware ADS-B (NZJL)
08:22PM -36.4570 174.5224 340° North 407 468 17,800 2,280 Climbing FlightAware ADS-B (NZPI)
08:23PM -36.4039 174.4981 340° North 413 475 18,900 2,220 Climbing FlightAware ADS-B (NZPI)
08:23PM -36.3843 174.4892 340° North 415 478 19,300 2,160 Climbing FlightAware ADS-B (NZNE)
08:23PM -36.3493 174.4733 340° North 419 482 20,000 2,220 Climbing FlightAware ADS-B (NZPI)
08:23PM -36.3216 174.4608 340° North 425 489 20,600 1,800 Climbing FlightAware ADS-B (NZNE)
08:24PM -36.2988 174.4504 340° North 428 493 20,900 1,500 Climbing FlightAware ADS-B (NZPI)
08:24PM -36.2473 174.4272 340° North 428 493 21,600 1,800 Climbing FlightAware ADS-B (NZJL)
08:24PM -36.2390 174.4234 340° North 435 501 21,800 1,920 Climbing FlightAware ADS-B (NZPI)
08:25PM -36.1807 174.3971 340° North 441 507 22,700 1,800 Climbing FlightAware ADS-B (NZPI)
08:25PM -36.1642 174.3896 340° North 444 511 23,100 1,800 Climbing FlightAware ADS-B (NZNE)
08:25PM -36.0928 174.3576 340° North 447 514 24,100 1,800 Climbing FlightAware ADS-B (NZPI)
08:25PM -36.0894 174.3560 340° North 448 516 24,300 1,260 Climbing FlightAware ADS-B (NZNE)
08:26PM -36.0491 174.3379 341° North 452 520 24,700 1,500 Climbing FlightAware ADS-B (NZPI)
08:26PM -36.0134 174.3219 340° North 446 513 25,200 1,500 Climbing FlightAware ADS-B (NZJL)
08:27PM -35.9247 174.2822 340° North 461 531 26,200 1,380 Climbing FlightAware ADS-B (NZNE)
08:27PM -35.8952 174.2691 341° North 462 532 26,600 1,500 Climbing FlightAware ADS-B (NZPI)
08:28PM -35.8167 174.2341 340° North 466 536 27,500 1,440 Climbing FlightAware ADS-B (NZNE)
08:28PM -35.7333 174.2000 340° North 471 542 1,500 Descending New Zealand
08:29PM -35.6496 174.1590 340° North 465 535 29,600 17,340 Climbing FlightAware ADS-B (NZJL)
08:30PM -35.5156 174.0997 340° North 447 514 31,600 1,500 Climbing FlightAware ADS-B (NZJL)
08:31PM -35.3969 174.0475 340° North 444 511 32,900 1,140 Climbing FlightAware ADS-B (NZJL)
08:32PM -35.2760 173.9944 340° North 445 512 34,000 540 Climbing FlightAware ADS-B (NZJL)
08:33PM -35.1586 173.9430 340° North 443 510 34,000  Level FlightAware ADS-B (NZJL)
08:34PM -35.0376 173.8897 340° North 448 516 34,000  Level FlightAware ADS-B (NZJL)
08:35PM -34.9217 173.8387 340° North 448 516 34,000  Level FlightAware ADS-B (NZJL)
08:36PM -34.8055 173.7882 340° North 447 514 34,000  Level FlightAware ADS-B (NZJL)
08:37PM -34.6878 173.7370 340° North 447 514 34,000  Level FlightAware ADS-B (NZJL)
08:38PM -34.5690 173.6855 340° North 447 514 34,000  Level FlightAware ADS-B (NZJL)
08:39PM -34.4583 173.6378 340° North 447 514 34,000  Level FlightAware ADS-B (NZJL)
08:40PM -34.4000 173.6000 340° North 447 514  Descending New Zealand
08:40PM -34.3354 173.5862 340° North 441 507 34,000 22,140 Climbing FlightAware ADS-B (NZJL)
08:41PM -34.2667 173.5500 340° North 448 516  Descending New Zealand
08:41PM -34.2186 173.5355 340° North 450 518 34,000 33,960 Climbing FlightAware ADS-B (NZJL)
08:42PM -34.1582 173.5090 340° North 442 509 34,000  Level FlightAware ADS-B (NZJL)
08:42PM -34.1500 173.5000 340° North 450 518  Descending New Zealand
08:43PM -34.0333 173.4500 340° North 450 518 21,240 Level New Zealand
08:43PM -33.9666 173.4273 340° North 444 511 34,000 22,620 Climbing FlightAware ADS-B (NZJL)
08:44PM -33.8561 173.3812 343° North 452 520 34,000  Level FlightAware ADS-B (NZJL)
08:45PM -33.7833 173.3500 343° North 451 519 -61,860 Descending New Zealand
08:46PM -33.7500 173.3333 337° Northwest 450 518  Level New Zealand
08:47PM -33.5333 173.2667 346° North 456 525  Level New Zealand
08:48PM -33.5000 173.2500 337° Northwest 450 518  Level New Zealand
08:49PM -33.2833 173.1667 342° North 459 528  Level New Zealand
08:50PM -33.2667 173.1667 360° North 450 518  Level New Zealand
08:51PM -33.0333 173.0667 340° North 449 517  Level New Zealand
08:52PM -33.0333 173.0833 90° East 450 518  Level New Zealand
08:54PM -32.7833 172.9833 341° North 450 518  Level New Zealand
08:56PM -32.5500 172.9000 343° North 450 518  Level New Zealand
08:58PM -32.3167 172.8167 343° North 450 518  Level New Zealand
09:00PM -32.0667 172.7333 344° North 450 518  Level New Zealand
09:02PM -31.8333 172.6500 343° North 450 518  Level New Zealand
09:04PM -31.5833 172.5667 344° North 450 518  Level New Zealand
09:06PM -31.3500 172.4833 343° North 450 518  Level New Zealand
09:08PM -31.1167 172.4000 343° North 450 518  Level New Zealand
09:10PM -30.8667 172.3167 344° North 450 518  Level New Zealand
09:12PM -30.6333 172.2333 343° North 450 518  Level New Zealand
09:14PM -30.3833 172.1500 344° North 450 518  Level New Zealand
09:16PM -30.1500 172.0667 343° North 450 518  Level New Zealand
09:18PM -29.9167 171.9833 343° North 450 518  Level New Zealand
09:20PM -29.6667 171.9000 344° North 450 518  Level New Zealand
09:22PM -29.4333 171.8167 343° North 430 495  Level New Zealand
09:24PM -29.2000 171.7333 343° North 430 495  Level New Zealand
09:26PM -28.9500 171.6500 344° North 447 514  Level New Zealand
09:28PM -28.7167 171.5833 346° North 447 514  Level New Zealand
09:30PM -28.4667 171.5000 344° North 447 514  Level New Zealand
09:32PM -28.2333 171.4167 343° North 447 514  Level New Zealand
09:34PM -28.0000 171.3333 342° North 447 514  Level New Zealand
09:36PM -27.7500 171.2667 347° North 447 514  Level New Zealand
09:38PM -27.5167 171.1833 342° North 447 514  Level New Zealand
09:40PM -27.2667 171.1000 343° North 447 514  Level New Zealand
09:42PM -27.0333 171.0333 346° North 447 514  Level New Zealand
09:44PM -26.8000 170.9500 342° North 447 514  Level New Zealand
09:46PM -26.5500 170.8833 347° North 447 514  Level New Zealand
09:48PM -26.3167 170.8000 342° North 447 514  Level New Zealand
09:50PM -26.0667 170.7167 343° North 447 514  Level New Zealand
09:52PM -25.8523 170.6513 345° North  Level Estimated
09:59PM -25.0621 170.4124 345° North  Level Estimated
10:00PM -24.9492 170.3785 345° North  Level Estimated
10:01PM -24.8363 170.3447 345° North  Level Estimated
10:02PM -24.7234 170.3110 345° North  Level Estimated
10:03PM -24.6105 170.2773 345° North  Level Estimated
10:04PM -24.4975 170.2437 345° North  Level Estimated
10:05PM -24.3846 170.2101 345° North  Level Estimated
10:06PM -24.2716 170.1766 345° North  Level Estimated
10:07PM -24.1587 170.1431 345° North  Level Estimated
10:08PM -24.0457 170.1097 345° North  Level Estimated
10:09PM -23.9327 170.0764 345° North  Level Estimated
10:10PM -23.8197 170.0431 345° North  Level Estimated
10:11PM -23.7068 170.0099 345° North  Level Estimated
10:12PM -23.5938 169.9768 345° North  Level Estimated
10:13PM -23.4807 169.9437 345° North  Level Estimated
10:14PM -23.3677 169.9106 345° North  Level Estimated
10:15PM -23.2547 169.8777 345° North  Level Estimated
10:16PM -23.1417 169.8447 345° North  Level Estimated
10:17PM -23.0287 169.8118 345° North  Level Estimated
10:18PM -22.9156 169.7790 345° North  Level Estimated
10:19PM -22.8026 169.7463 345° North  Level Estimated
10:20PM -22.6895 169.7135 345° North  Level Estimated
10:21PM -22.5765 169.6809 345° North  Level Estimated
10:22PM -22.4634 169.6483 345° North  Level Estimated
10:23PM -22.3503 169.6157 345° North  Level Estimated
10:24PM -22.2373 169.5832 345° North  Level Estimated
10:25PM -22.1242 169.5508 345° North  Level Estimated
10:26PM -22.0111 169.5184 345° North  Level Estimated
10:27PM -21.8980 169.4861 345° North  Level Estimated
10:28PM -21.7849 169.4538 345° North  Level Estimated
10:29PM -21.6718 169.4215 345° North  Level Estimated
10:30PM -21.5587 169.3893 345° North  Level Estimated
10:31PM -21.4456 169.3572 345° North  Level Estimated
10:32PM -21.3324 169.3251 345° North  Level Estimated
10:33PM -21.2193 169.2931 345° North  Level Estimated
10:34PM -21.1061 169.2611 345° North  Level Estimated
10:35PM -20.9930 169.2292 345° North  Level Estimated
10:36PM -20.8799 169.1973 345° North  Level Estimated
10:37PM -20.7667 169.1654 345° North  Level Estimated
10:38PM -20.6535 169.1336 345° North  Level Estimated
10:39PM -20.5404 169.1019 345° North  Level Estimated
10:40PM -20.4272 169.0702 345° North  Level Estimated
10:41PM -20.3140 169.0385 345° North  Level Estimated
10:42PM -20.2008 169.0069 345° North  Level Estimated
10:43PM -20.0876 168.9753 345° North  Level Estimated
10:44PM -19.9744 168.9438 345° North  Level Estimated
10:45PM -19.8612 168.9124 345° North  Level Estimated
10:46PM -19.7480 168.8809 345° North  Level Estimated
10:47PM -19.6348 168.8495 345° North  Level Estimated
10:48PM -19.5216 168.8182 345° North  Level Estimated
10:49PM -19.4084 168.7869 345° North  Level Estimated
10:50PM -19.2951 168.7556 345° North  Level Estimated
10:51PM -19.1819 168.7244 345° North  Level Estimated
10:52PM -19.0687 168.6933 345° North  Level Estimated
10:53PM -18.9554 168.6622 345° North  Level Estimated
10:54PM -18.8422 168.6311 345° North  Level Estimated
10:55PM -18.7289 168.6000 345° North  Level Estimated
10:56PM -18.6156 168.5690 345° North  Level Estimated
10:57PM -18.5024 168.5381 345° North  Level Estimated
10:58PM -18.3891 168.5072 345° North  Level Estimated
10:59PM -18.2758 168.4763 345° North  Level Estimated
11:00PM -18.1625 168.4454 345° North  Level Estimated
11:01PM -18.0493 168.4147 346° North  Level Estimated
11:02PM -17.9360 168.3839 346° North  Level Estimated
11:03PM -17.8227 168.3532 346° North  Level Estimated
11:04PM -17.7094 168.3225 346° North  Level Estimated
11:05PM -17.6993 168.3198 346° North  Level Estimated
11:06PM -17.6993 168.3198 North  Level Estimated
11:07PM -17.6993 168.3198 North  Level Estimated
11:08PM -17.6993 168.3198 North  Level Estimated
11:09PM -17.6993 168.3198 North  Level Estimated
11:10PM -17.6993 168.3198 North  Level Estimated
11:11PM -17.6993 168.3198 North  Level Estimated
11:12PM -17.6993 168.3198 North  Level Estimated
11:13PM -17.6993 168.3198 North  Level Estimated
11:14PM -17.6993 168.3198 North  Level Estimated
11:15PM -17.6993 168.3198 North  Level Estimated
11:16PM -17.6993 168.3198 North  Level Estimated
11:17PM -17.6993 168.3198 North  Level Estimated
11:18PM -17.6993 168.3198 North  Level Estimated
11:19PM -17.6993 168.3198 North  Level Estimated
11:20PM -17.6993 168.3198 North  Level Estimated
11:21PM -17.6993 168.3198 North  Level Estimated
11:22PM -17.6993 168.3198 North  Level Estimated